Time,TemperatureF,DewpointF,PressureIn,WindDirection,WindDirectionDegrees,WindSpeedMPH,WindSpeedGustMPH,Humidity,HourlyPrecipIn,Conditions,Clouds,dailyrainin,SoftwareType,DateUTC
2016-02-08 00:10:00,40.1,38.0,30.11,NW,316,0.0,0.0,92,0.00,,,0.00,weatherlink.com 1.10,2016-02-08 05:10:00,
2016-02-08 00:25:00,39.7,38.0,30.11,NW,316,0.0,0.0,93,0.00,,,0.00,weatherlink.com 1.10,2016-02-08 05:25:00,
2016-02-08 00:40:00,39.3,38.0,30.10,NW,316,0.0,0.0,93,0.00,,,0.00,weatherlink.com 1.10,2016-02-08 05:40:00,
2016-02-08 00:55:00,38.9,37.0,30.10,NW,316,0.0,0.0,93,0.00,,,0.00,weatherlink.com 1.10,2016-02-08 05:55:00,
2016-02-08 01:10:00,38.7,37.0,30.09,NW,316,0.0,0.0,94,0.00,,,0.00,weatherlink.com 1.10,2016-02-08 06:10:00,
2016-02-08 01:25:00,38.4,37.0,30.09,NW,316,0.0,0.0,94,0.00,,,0.00,weatherlink.com 1.10,2016-02-08 06:25:00,
2016-02-08 01:40:00,38.3,37.0,30.09,NW,316,0.0,0.0,95,0.00,,,0.00,weatherlink.com 1.10,2016-02-08 06:40:00,
2016-02-08 01:55:00,38.0,37.0,30.08,NW,316,0.0,0.0,95,0.00,,,0.00,weatherlink.com 1.10,2016-02-08 06:55:00,
2016-02-08 02:10:00,37.8,37.0,30.08,NW,316,0.0,0.0,95,0.00,,,0.00,weatherlink.com 1.10,2016-02-08 07:10:00,
2016-02-08 02:25:00,37.7,36.0,30.08,NW,316,0.0,0.0,95,0.00,,,0.00,weatherlink.com 1.10,2016-02-08 07:25:00,
2016-02-08 02:40:00,37.7,36.0,30.07,NW,316,0.0,0.0,95,0.00,,,0.00,weatherlink.com 1.10,2016-02-08 07:40:00,
2016-02-08 02:56:00,37.5,36.0,30.07,NW,316,0.0,0.0,95,0.00,,,0.00,weatherlink.com 1.10,2016-02-08 07:56:00,
2016-02-08 03:10:00,37.5,36.0,30.07,NW,316,0.0,0.0,95,0.00,,,0.00,weatherlink.com 1.10,2016-02-08 08:10:00,
2016-02-08 03:25:00,37.4,36.0,30.06,NW,316,0.0,0.0,95,0.00,,,0.00,weatherlink.com 1.10,2016-02-08 08:25:00,
2016-02-08 03:40:00,37.3,36.0,30.06,NW,316,0.0,0.0,95,0.00,,,0.00,weatherlink.com 1.10,2016-02-08 08:40:00,
2016-02-08 04:10:00,37.1,36.0,30.05,NW,316,0.0,0.0,96,0.00,,,0.00,weatherlink.com 1.10,2016-02-08 09:10:00,
2016-02-08 04:25:00,37.0,36.0,30.06,NW,316,0.0,0.0,96,0.00,,,0.00,weatherlink.com 1.10,2016-02-08 09:25:00,
2016-02-08 04:40:00,37.0,36.0,30.06,NW,316,0.0,0.0,96,0.00,,,0.00,weatherlink.com 1.10,2016-02-08 09:40:00,
2016-02-08 04:55:00,36.8,36.0,30.06,NW,316,0.0,0.0,96,0.00,,,0.00,weatherlink.com 1.10,2016-02-08 09:55:00,
2016-02-08 05:10:00,36.7,36.0,30.06,NW,316,0.0,0.0,96,0.00,,,0.00,weatherlink.com 1.10,2016-02-08 10:10:00,
2016-02-08 05:25:00,36.7,36.0,30.07,NW,316,0.0,0.0,96,0.00,,,0.00,weatherlink.com 1.10,2016-02-08 10:25:00,
2016-02-08 05:41:00,36.8,36.0,30.07,NW,316,0.0,0.0,96,0.00,,,0.00,weatherlink.com 1.10,2016-02-08 10:41:00,
2016-02-08 05:55:00,36.8,36.0,30.08,NW,316,0.0,0.0,96,0.00,,,0.00,weatherlink.com 1.10,2016-02-08 10:55:00,
2016-02-08 06:10:00,36.8,36.0,30.09,NW,316,0.0,0.0,96,0.00,,,0.00,weatherlink.com 1.10,2016-02-08 11:10:00,
2016-02-08 06:40:00,36.6,36.0,30.09,NW,316,0.0,0.0,96,0.00,,,0.00,weatherlink.com 1.10,2016-02-08 11:40:00,
2016-02-08 06:55:00,36.8,36.0,30.09,NW,316,0.0,0.0,96,0.00,,,0.00,weatherlink.com 1.10,2016-02-08 11:55:00,
2016-02-08 07:10:00,36.8,36.0,30.09,NW,316,0.0,0.0,96,0.00,,,0.00,weatherlink.com 1.10,2016-02-08 12:10:00,
2016-02-08 07:25:00,37.0,36.0,30.09,NW,317,0.0,2.0,96,0.00,,,0.00,weatherlink.com 1.10,2016-02-08 12:25:00,
2016-02-08 07:40:00,37.4,37.0,30.09,NW,316,0.0,0.0,97,0.00,,,0.00,weatherlink.com 1.10,2016-02-08 12:40:00,
2016-02-08 07:55:00,39.3,39.0,30.10,NW,316,0.0,2.0,98,0.00,,,0.00,weatherlink.com 1.10,2016-02-08 12:55:00,
2016-02-08 08:10:00,41.4,41.0,30.10,NW,316,0.0,0.0,98,0.00,,,0.00,weatherlink.com 1.10,2016-02-08 13:10:00,
2016-02-08 08:26:00,43.9,43.0,30.11,NW,316,0.0,0.0,97,0.00,,,0.00,weatherlink.com 1.10,2016-02-08 13:26:00,
2016-02-08 08:56:00,47.9,45.0,30.12,NW,316,0.0,2.0,90,0.00,,,0.00,weatherlink.com 1.10,2016-02-08 13:56:00,
2016-02-08 09:11:00,51.4,46.0,30.12,SE,136,2.0,5.0,81,0.00,,,0.00,weatherlink.com 1.10,2016-02-08 14:11:00,
2016-02-08 09:26:00,52.5,47.0,30.12,SE,136,0.0,3.0,80,0.00,,,0.00,weatherlink.com 1.10,2016-02-08 14:26:00,
2016-02-08 09:41:00,54.6,46.0,30.13,SE,144,0.0,5.0,73,0.00,,,0.00,weatherlink.com 1.10,2016-02-08 14:41:00,
2016-02-08 09:56:00,56.8,45.0,30.13,ESE,118,3.0,4.0,66,0.00,,,0.00,weatherlink.com 1.10,2016-02-08 14:56:00,
2016-02-08 10:26:00,59.7,46.0,30.13,SW,232,2.0,4.0,60,0.00,,,0.00,weatherlink.com 1.10,2016-02-08 15:26:00,
2016-02-08 10:41:00,60.6,46.0,30.13,SW,221,2.0,5.0,59,0.00,,,0.00,weatherlink.com 1.10,2016-02-08 15:41:00,
2016-02-08 10:56:00,61.0,46.0,30.11,SSW,211,2.0,6.0,59,0.00,,,0.00,weatherlink.com 1.10,2016-02-08 15:56:00,
2016-02-08 11:26:00,62.6,49.0,30.10,SSW,206,7.0,10.0,62,0.00,,,0.00,weatherlink.com 1.10,2016-02-08 16:26:00,
2016-02-08 11:41:00,64.1,49.0,30.09,WSW,246,4.0,8.0,59,0.00,,,0.00,weatherlink.com 1.10,2016-02-08 16:41:00,
2016-02-08 11:56:00,64.5,50.0,30.08,WSW,238,8.0,8.0,60,0.00,,,0.00,weatherlink.com 1.10,2016-02-08 16:56:00,
2016-02-08 12:11:00,65.8,51.0,30.07,NW,317,4.0,13.0,59,0.00,,,0.00,weatherlink.com 1.10,2016-02-08 17:11:00,
2016-02-08 12:26:00,64.5,50.0,30.07,WSW,252,10.0,11.0,60,0.00,,,0.00,weatherlink.com 1.10,2016-02-08 17:26:00,
2016-02-08 12:41:00,64.8,50.0,30.07,West,261,6.0,13.0,60,0.00,,,0.00,weatherlink.com 1.10,2016-02-08 17:41:00,
2016-02-08 12:56:00,63.8,51.0,30.06,WSW,248,5.0,12.0,63,0.00,,,0.00,weatherlink.com 1.10,2016-02-08 17:56:00,
2016-02-08 13:27:00,65.7,51.0,30.04,SW,215,10.0,11.0,60,0.00,,,0.00,weatherlink.com 1.10,2016-02-08 18:27:00,
2016-02-08 13:57:00,65.8,52.0,30.02,WSW,254,8.0,15.0,62,0.00,,,0.00,weatherlink.com 1.10,2016-02-08 18:57:00,
2016-02-08 14:12:00,66.8,52.0,30.01,WNW,294,8.0,15.0,60,0.00,,,0.00,weatherlink.com 1.10,2016-02-08 19:12:00,
2016-02-08 14:27:00,66.3,53.0,30.00,WSW,248,4.0,15.0,63,0.00,,,0.00,weatherlink.com 1.10,2016-02-08 19:27:00,
2016-02-08 14:42:00,67.1,54.0,30.00,SW,221,3.0,15.0,63,0.00,,,0.00,weatherlink.com 1.10,2016-02-08 19:42:00,
2016-02-08 14:57:00,66.2,53.0,29.99,SW,233,8.0,17.0,63,0.00,,,0.00,weatherlink.com 1.10,2016-02-08 19:57:00,
2016-02-08 15:12:00,64.6,53.0,29.99,WSW,248,7.0,16.0,66,0.00,,,0.00,weatherlink.com 1.10,2016-02-08 20:12:00,
2016-02-08 15:27:00,66.1,53.0,29.98,SW,235,5.0,13.0,64,0.00,,,0.00,weatherlink.com 1.10,2016-02-08 20:27:00,
2016-02-08 15:57:00,65.7,54.0,29.98,West,267,9.0,11.0,65,0.00,,,0.00,weatherlink.com 1.10,2016-02-08 20:57:00,
2016-02-08 16:12:00,65.8,52.0,29.98,WNW,290,7.0,12.0,62,0.00,,,0.00,weatherlink.com 1.10,2016-02-08 21:12:00,
2016-02-08 16:27:00,65.3,52.0,29.98,West,259,10.0,16.0,63,0.00,,,0.00,weatherlink.com 1.10,2016-02-08 21:27:00,
2016-02-08 16:42:00,65.2,52.0,29.98,West,261,9.0,16.0,62,0.00,,,0.00,weatherlink.com 1.10,2016-02-08 21:42:00,
2016-02-08 16:57:00,64.6,52.0,29.98,West,275,9.0,14.0,63,0.00,,,0.00,weatherlink.com 1.10,2016-02-08 21:57:00,
2016-02-08 17:12:00,64.4,52.0,29.98,West,272,7.0,13.0,65,0.00,,,0.00,weatherlink.com 1.10,2016-02-08 22:12:00,
2016-02-08 17:27:00,64.1,53.0,29.97,West,269,6.0,10.0,67,0.00,,,0.00,weatherlink.com 1.10,2016-02-08 22:27:00,
2016-02-08 17:42:00,63.7,53.0,29.97,WSW,247,3.0,10.0,68,0.00,,,0.00,weatherlink.com 1.10,2016-02-08 22:42:00,
2016-02-08 17:57:00,63.2,53.0,29.97,WSW,246,2.0,8.0,70,0.00,,,0.00,weatherlink.com 1.10,2016-02-08 22:57:00,
2016-02-08 18:12:00,62.4,53.0,29.96,West,260,3.0,6.0,72,0.00,,,0.00,weatherlink.com 1.10,2016-02-08 23:12:00,
2016-02-08 18:27:00,61.2,53.0,29.96,West,261,1.0,4.0,75,0.00,,,0.00,weatherlink.com 1.10,2016-02-08 23:27:00,